Time;durP1;ratioP1;P1;durP2;ratioP2;P2;SDS_P1;SDS_P2;PMS_P1;PMS_P2;Temp;Humidity;BMP_temperature;BMP_pressure;BME280_temperature;BME280_humidity;BME280_pressure;Samples;Min_cycle;Max_cycle;Signal;HPM_P1;HPM_P2
2023/05/31 00:02:30;;;;;;;9.32;7.40;;;;;;;25.68;32.51;101994.66;20994406;28;20200;-66
2023/05/31 00:12:32;;;;;;;8.40;6.88;;;;;;;25.76;33.02;102021.28;20994474;28;20037;-67
2023/05/31 00:22:36;;;;;;;10.93;8.10;;;;;;;25.75;33.11;102023.22;20991172;28;20098;-65
2023/05/31 00:32:37;;;;;;;11.10;8.80;;;;;;;25.77;32.96;102039.78;20997010;28;20479;-66
2023/05/31 00:42:38;;;;;;;12.88;9.93;;;;;;;25.74;33.50;102049.56;21004683;28;20125;-66
2023/05/31 00:52:40;;;;;;;15.27;12.90;;;;;;;25.73;32.95;102055.47;21004259;28;20498;-66
2023/05/31 01:02:43;;;;;;;12.73;10.45;;;;;;;25.63;33.63;102059.16;21003188;28;20040;-66
2023/05/31 01:12:53;;;;;;;13.15;10.57;;;;;;;25.70;33.80;102082.09;21002746;28;20021;-66
2023/05/31 01:23:36;;;;;;;11.85;10.32;;;;;;;25.72;33.79;102082.66;21001787;28;20040;-66
2023/05/31 01:33:39;;;;;;;12.43;10.43;;;;;;;25.75;34.30;102084.91;21001300;28;20037;-68
2023/05/31 01:43:43;;;;;;;10.57;9.27;;;;;;;25.72;34.82;102088.25;20998899;28;20094;-66
2023/05/31 01:53:45;;;;;;;13.30;10.73;;;;;;;25.64;34.56;102079.59;20999198;28;20052;-67
2023/05/31 02:03:51;;;;;;;14.60;13.00;;;;;;;25.75;34.14;102110.13;20998295;28;20056;-67
2023/05/31 02:13:52;;;;;;;15.13;12.85;;;;;;;25.76;34.39;102111.84;20997628;28;20040;-65
2023/05/31 02:23:57;;;;;;;15.35;12.18;;;;;;;25.75;34.85;102124.16;20996490;28;20032;-66
2023/05/31 02:34:01;;;;;;;14.32;11.55;;;;;;;25.74;34.93;102135.63;20995775;28;20029;-66
2023/05/31 02:44:03;;;;;;;12.20;10.70;;;;;;;25.52;35.31;102106.00;20995342;28;20051;-66
2023/05/31 02:54:04;;;;;;;12.80;10.60;;;;;;;25.76;35.29;102144.66;20994008;28;20553;-68
2023/05/31 03:04:06;;;;;;;11.57;10.38;;;;;;;25.71;35.62;102142.66;20993826;28;20407;-67
2023/05/31 03:14:07;;;;;;;12.65;10.80;;;;;;;25.74;35.59;102147.69;20993847;28;20450;-66
2023/05/31 03:24:08;;;;;;;12.93;10.50;;;;;;;25.61;35.46;102137.06;20993357;28;20024;-65
2023/05/31 03:34:13;;;;;;;12.52;10.07;;;;;;;25.72;35.45;102152.75;20992795;28;20044;-67
2023/05/31 03:44:14;;;;;;;10.98;9.68;;;;;;;25.72;35.47;102149.94;20992516;28;20102;-66
2023/05/31 03:54:21;;;;;;;11.35;9.52;;;;;;;25.73;35.79;102151.63;20991406;28;20082;-65
2023/05/31 04:04:23;;;;;;;11.73;9.87;;;;;;;25.72;35.88;102149.94;20993495;28;20555;-67
2023/05/31 04:14:24;;;;;;;11.02;8.98;;;;;;;25.66;35.88;102139.88;21007194;28;20040;-66
2023/05/31 04:24:31;;;;;;;11.88;9.05;;;;;;;25.67;35.96;102147.16;21006360;28;20032;-66
2023/05/31 04:34:36;;;;;;;11.13;8.87;;;;;;;25.69;35.85;102149.66;21005421;28;20037;-66
2023/05/31 04:44:37;;;;;;;9.60;8.60;;;;;;;25.49;35.83;102117.78;21004642;28;20373;-66
2023/05/31 04:54:40;;;;;;;9.80;8.80;;;;;;;25.45;36.09;102110.22;21002953;28;20534;-65
2023/05/31 05:04:42;;;;;;;9.52;7.40;;;;;;;25.66;35.79;102147.41;21003431;28;20395;-66
2023/05/31 05:14:46;;;;;;;10.07;8.82;;;;;;;25.64;36.42;102139.31;21002074;28;20426;-66
2023/05/31 05:24:47;;;;;;;8.52;7.13;;;;;;;25.63;36.25;102129.22;21001710;28;20340;-66
2023/05/31 05:34:48;;;;;;;8.93;6.75;;;;;;;25.61;36.17;102134.25;21001159;28;20029;-65
2023/05/31 05:44:50;;;;;;;7.65;6.85;;;;;;;25.61;36.38;102134.25;21000538;28;20036;-68
2023/05/31 05:54:51;;;;;;;8.68;6.43;;;;;;;25.52;36.53;102113.53;20999205;28;20098;-65
2023/05/31 06:04:52;;;;;;;8.30;6.38;;;;;;;25.41;36.22;102087.53;20998999;28;20057;-65
2023/05/31 06:14:54;;;;;;;7.80;6.38;;;;;;;25.54;36.39;102117.75;20997761;28;20033;-66
2023/05/31 06:24:58;;;;;;;6.65;5.60;;;;;;;25.40;36.65;102096.22;20996957;28;20040;-66
2023/05/31 06:35:03;;;;;;;12.82;9.07;;;;;;;25.52;36.66;102110.75;20995577;28;20082;-67
2023/05/31 06:45:04;;;;;;;18.98;11.93;;;;;;;25.53;36.59;102092.81;20995373;28;20048;-65
2023/05/31 06:55:07;;;;;;;21.27;14.23;;;;;;;25.45;36.86;102088.63;20993971;28;20388;-66
2023/05/31 07:05:08;;;;;;;28.13;17.60;;;;;;;24.60;36.86;101937.25;20994048;28;20472;-66
2023/05/31 07:15:10;;;;;;;25.45;15.95;;;;;;;25.44;36.85;102081.34;20993496;28;20476;-67
2023/05/31 07:25:11;;;;;;;27.60;17.67;;;;;;;25.45;36.91;102099.84;20993311;28;20052;-66
2023/05/31 07:35:13;;;;;;;29.85;17.25;;;;;;;25.08;37.33;102031.00;20992866;28;20044;-66
2023/05/31 07:45:14;;;;;;;28.50;18.48;;;;;;;25.30;37.16;102067.09;21004884;28;20032;-66
2023/05/31 07:55:17;;;;;;;31.27;17.20;;;;;;;25.37;37.08;102074.38;21010624;28;20036;-66
2023/05/31 08:05:18;;;;;;;25.52;16.55;;;;;;;25.40;37.11;102079.41;21009963;28;20056;-66
2023/05/31 08:15:20;;;;;;;28.77;16.60;;;;;;;25.36;37.14;102073.53;21007551;28;20450;-67
2023/05/31 08:25:22;;;;;;;27.33;16.52;;;;;;;25.35;37.42;102061.47;21005996;28;20041;-66
2023/05/31 08:35:23;;;;;;;24.52;14.95;;;;;;;25.31;37.28;102057.56;21005852;28;20542;-66
2023/05/31 08:45:29;;;;;;;21.25;15.07;;;;;;;25.33;37.66;102074.09;21004934;28;20388;-65
2023/05/31 08:55:36;;;;;;;21.98;14.55;;;;;;;25.22;37.89;102073.28;21003622;28;20098;-66
2023/05/31 09:05:38;;;;;;;22.27;13.90;;;;;;;25.28;37.65;102088.94;21003706;28;20383;-65
2023/05/31 09:15:41;;;;;;;18.17;11.48;;;;;;;25.19;37.71;102093.44;21002705;28;20040;-67
2023/05/31 09:25:51;;;;;;;20.25;11.73;;;;;;;25.03;37.91;102084.19;21001884;28;20094;-66
2023/05/31 09:35:58;;;;;;;19.65;11.52;;;;;;;25.22;37.49;102115.28;21000951;28;20044;-66
2023/05/31 09:46:00;;;;;;;16.70;10.80;;;;;;;25.23;37.72;102136.56;21000436;28;20020;-66
2023/05/31 09:56:03;;;;;;;18.02;10.60;;;;;;;25.15;38.08;102142.75;20999423;28;20040;-66
2023/05/31 10:06:04;;;;;;;17.83;10.35;;;;;;;25.18;37.80;102155.34;20997385;28;20098;-66
2023/05/31 10:16:10;;;;;;;15.73;9.40;;;;;;;25.17;37.79;102160.13;20997499;28;20044;-67
2023/05/31 10:26:18;;;;;;;14.98;8.70;;;;;;;25.14;37.73;102163.47;20996770;28;20036;-67
2023/05/31 10:36:20;;;;;;;13.38;9.00;;;;;;;25.12;37.94;102196.53;20995829;28;20063;-65
2023/05/31 10:46:29;;;;;;;11.70;7.53;;;;;;;24.79;38.04;102162.31;20995261;28;20241;-66
2023/05/31 10:56:30;;;;;;;13.48;8.13;;;;;;;25.07;38.27;102231.00;20994259;28;20114;-66
2023/05/31 11:06:36;;;;;;;11.80;7.85;;;;;;;25.03;38.23;102229.81;20994448;28;20415;-65
2023/05/31 11:16:43;;;;;;;10.30;6.82;;;;;;;25.10;38.06;102254.78;20993348;28;20102;-65
2023/05/31 11:26:56;;;;;;;10.43;5.93;;;;;;;25.07;38.26;102252.53;20993095;28;20029;-65
2023/05/31 11:37:04;;;;;;;10.65;6.57;;;;;;;24.91;38.18;102228.41;20992519;28;20041;-66
2023/05/31 11:47:15;;;;;;;11.18;6.30;;;;;;;24.79;38.38;102204.31;20992263;28;20066;-67
2023/05/31 11:57:17;;;;;;;8.15;5.57;;;;;;;25.05;38.30;102246.34;20991943;28;20044;-65
2023/05/31 12:07:22;;;;;;;9.13;5.82;;;;;;;25.04;38.23;102251.09;20992031;28;20049;-67
2023/05/31 12:17:23;;;;;;;6.80;5.05;;;;;;;25.08;38.14;102234.63;20990975;28;20098;-67
2023/05/31 12:27:27;;;;;;;8.63;5.30;;;;;;;25.07;38.57;102244.13;20995990;28;20033;-68
2023/05/31 12:37:28;;;;;;;6.85;4.15;;;;;;;25.06;38.44;102242.41;21006040;28;20397;-66
2023/05/31 12:47:29;;;;;;;9.18;5.00;;;;;;;25.05;38.39;102243.53;21004928;28;20487;-66
2023/05/31 12:57:34;;;;;;;7.03;4.45;;;;;;;24.83;38.56;102208.25;21003960;28;20048;-66
2023/05/31 13:07:38;;;;;;;8.55;4.72;;;;;;;25.05;38.22;102229.53;21003323;28;20032;-67
2023/05/31 13:17:39;;;;;;;8.05;5.07;;;;;;;25.08;38.23;102229.88;21002644;28;20041;-66
2023/05/31 13:27:41;;;;;;;9.60;4.55;;;;;;;25.11;38.49;102222.88;21002108;28;20093;-65
2023/05/31 13:37:42;;;;;;;7.90;4.72;;;;;;;25.09;38.36;102197.09;21000806;28;20101;-66
2023/05/31 13:47:44;;;;;;;8.10;4.50;;;;;;;24.90;38.38;102153.94;21000142;28;20032;-66
2023/05/31 13:57:45;;;;;;;7.57;4.80;;;;;;;25.13;38.24;102198.22;20999154;28;20118;-66
2023/05/31 14:07:47;;;;;;;7.85;4.20;;;;;;;25.14;38.31;102182.25;20998626;28;20048;-66
2023/05/31 14:17:48;;;;;;;5.72;4.00;;;;;;;25.19;38.01;102180.28;20998056;28;20028;-66
2023/05/31 14:27:49;;;;;;;7.18;4.93;;;;;;;25.12;37.99;102160.13;20997009;28;20099;-66
2023/05/31 14:37:51;;;;;;;9.88;4.68;;;;;;;25.22;38.06;102173.28;20996622;28;20094;-67
2023/05/31 14:47:52;;;;;;;7.50;4.90;;;;;;;25.24;38.14;102163.47;20995500;28;20067;-66
2023/05/31 14:57:54;;;;;;;7.35;5.07;;;;;;;25.26;38.01;102158.44;20994842;28;20044;-66
2023/05/31 15:07:55;;;;;;;6.72;5.22;;;;;;;25.29;37.93;102163.50;20994696;28;20044;-66
2023/05/31 15:17:57;;;;;;;6.63;5.22;;;;;;;24.98;38.16;102117.81;20994061;28;20039;-67
2023/05/31 15:28:01;;;;;;;7.55;5.82;;;;;;;25.10;38.20;102114.75;20994436;28;20028;-66
2023/05/31 15:38:03;;;;;;;7.47;5.60;;;;;;;25.27;38.31;102136.88;20997318;28;20045;-67
2023/05/31 15:48:04;;;;;;;7.63;5.80;;;;;;;25.30;38.01;102148.34;20995541;28;20048;-65
2023/05/31 15:58:06;;;;;;;7.20;5.47;;;;;;;25.32;38.15;102148.91;20996603;28;20075;-67
2023/05/31 16:08:07;;;;;;;7.53;6.00;;;;;;;25.32;38.00;102140.50;21006639;28;20114;-67
2023/05/31 16:18:08;;;;;;;7.00;5.97;;;;;;;25.33;38.05;102136.56;21007325;28;20045;-66
2023/05/31 16:28:10;;;;;;;8.88;6.38;;;;;;;25.35;38.00;102137.13;21007072;28;20020;-66
2023/05/31 16:38:13;;;;;;;9.70;6.05;;;;;;;25.37;37.94;102130.41;21005530;28;20457;-66
2023/05/31 16:48:15;;;;;;;7.05;5.63;;;;;;;25.40;37.92;102113.03;21005390;28;20455;-66
2023/05/31 16:58:16;;;;;;;8.00;6.47;;;;;;;25.25;38.02;102077.50;21003786;28;20078;-66
2023/05/31 17:08:17;;;;;;;7.32;6.00;;;;;;;25.42;37.91;102082.75;21001903;28;20040;-67
2023/05/31 17:18:19;;;;;;;7.95;6.10;;;;;;;25.35;37.77;102055.88;21002271;28;20537;-64
2023/05/31 17:28:20;;;;;;;7.47;5.70;;;;;;;25.31;38.10;102042.72;21001998;28;20047;-65
2023/05/31 17:38:21;;;;;;;8.23;6.75;;;;;;;25.46;37.86;102055.84;21001816;28;20044;-65
2023/05/31 17:48:23;;;;;;;7.57;6.35;;;;;;;25.33;37.77;102018.03;21000354;28;20040;-65
2023/05/31 17:58:27;;;;;;;8.20;6.13;;;;;;;25.45;37.70;102031.75;20999468;28;20028;-66
2023/05/31 18:08:40;;;;;;;7.15;6.30;;;;;;;25.48;37.69;102034.00;20998837;28;20408;-67
2023/05/31 18:18:41;;;;;;;7.25;6.07;;;;;;;25.56;37.78;102050.19;20997348;28;20044;-67
2023/05/31 18:28:43;;;;;;;7.95;6.78;;;;;;;25.53;37.75;102025.56;20995965;28;20418;-66
2023/05/31 18:39:05;;;;;;;7.18;6.07;;;;;;;25.51;37.81;102020.22;20994946;28;20040;-66
2023/05/31 18:49:06;;;;;;;7.95;6.30;;;;;;;25.57;37.75;102007.06;20995308;28;20033;-67
2023/05/31 18:59:07;;;;;;;9.38;6.93;;;;;;;25.57;37.96;101985.47;20994740;28;20550;-66
2023/05/31 19:09:09;;;;;;;7.90;6.60;;;;;;;25.26;37.82;101899.88;20994465;28;20041;-66
2023/05/31 19:19:11;;;;;;;8.88;7.15;;;;;;;25.57;37.94;101948.19;20994099;28;20036;-68
2023/05/31 19:29:13;;;;;;;8.43;7.28;;;;;;;25.47;37.76;101918.22;20993737;28;20573;-66
2023/05/31 19:39:17;;;;;;;9.75;7.07;;;;;;;25.55;37.83;101923.22;20992841;28;20457;-66
2023/05/31 19:49:18;;;;;;;8.60;7.35;;;;;;;25.45;37.71;101902.84;20992718;28;20488;-66
2023/05/31 19:59:19;;;;;;;10.40;9.02;;;;;;;25.67;37.85;101910.84;20992121;28;20033;-67
2023/05/31 20:09:21;;;;;;;10.77;8.75;;;;;;;25.66;37.64;101900.75;20992092;28;20037;-66
2023/05/31 20:19:22;;;;;;;13.75;10.55;;;;;;;25.69;37.69;101900.16;20991996;28;20044;-66
2023/05/31 20:29:23;;;;;;;12.95;11.27;;;;;;;25.74;37.63;101895.34;20990855;28;20430;-65
2023/05/31 20:39:25;;;;;;;15.82;11.93;;;;;;;25.75;37.22;101883.03;20990529;28;20043;-67
2023/05/31 20:49:26;;;;;;;16.08;11.77;;;;;;;25.59;37.43;101859.88;20996137;28;20044;-65
2023/05/31 20:59:29;;;;;;;17.08;13.48;;;;;;;25.74;37.24;101872.94;21004210;28;20048;-67
2023/05/31 21:09:33;;;;;;;19.00;16.17;;;;;;;23.65;36.92;101532.63;21003773;28;20054;-65
2023/05/31 21:19:35;;;;;;;18.13;15.98;;;;;;;25.73;36.71;101862.03;21002653;28;20033;-65
2023/05/31 21:29:44;;;;;;;17.25;15.40;;;;;;;25.77;36.84;101861.19;21002037;28;20041;-65
2023/05/31 21:39:45;;;;;;;19.10;15.20;;;;;;;25.79;37.17;101853.31;21001030;28;20040;-66
2023/05/31 21:49:49;;;;;;;18.05;15.20;;;;;;;25.79;37.18;101850.50;21000348;28;20029;-66
2023/05/31 21:59:51;;;;;;;16.55;14.85;;;;;;;25.73;37.28;101840.44;20997514;28;20044;-66
2023/05/31 22:09:52;;;;;;;17.10;15.13;;;;;;;25.80;37.18;101848.56;20998481;28;20071;-66
2023/05/31 22:19:59;;;;;;;17.15;15.35;;;;;;;25.84;36.88;101855.22;20997664;28;20037;-66
2023/05/31 22:30:00;;;;;;;18.53;15.00;;;;;;;25.87;37.00;101853.81;20997654;28;20044;-66
2023/05/31 22:40:02;;;;;;;19.17;17.08;;;;;;;25.90;36.77;101859.69;20996312;28;20086;-66
2023/05/31 22:50:05;;;;;;;19.85;16.67;;;;;;;25.89;36.95;101851.53;20995410;28;20090;-67
2023/05/31 23:00:13;;;;;;;19.17;17.17;;;;;;;25.87;37.23;101848.22;20994867;28;20048;-66
2023/05/31 23:10:18;;;;;;;22.27;19.50;;;;;;;25.94;36.83;101865.53;20993760;28;20079;-66
2023/05/31 23:20:22;;;;;;;21.67;19.38;;;;;;;25.90;36.95;101870.06;20994358;28;20549;-66
2023/05/31 23:30:30;;;;;;;19.95;17.80;;;;;;;25.79;36.60;101853.31;20993645;28;20066;-64
2023/05/31 23:40:31;;;;;;;;;;;;;;;25.91;36.40;101866.97;20993151;28;20029;-66
2023/05/31 23:50:32;;;;;;;22.92;19.25;;;;;;;25.74;36.51;101833.69;20993425;28;20363;-66
